FW1519 Weather Reports


Display with metric or nautical units.
time (UTC)temp
F
wind
direction
speed
MPH
gust
MPH
rain 1hr
in
rain 24hr
in
rain mn
in
humidity
%
barometer
mb
20191018013405 46 112 5.0 9.0 0.00 0.00 0.00 72 1015.1
20191018012905 47 123 5.0 9.0 0.00 0.00 0.00 71 1015.2
20191018012405 47 122 4.0 6.0 0.00 0.00 0.00 71 1015.3
20191018011905 47 120 4.0 8.0 0.00 0.00 0.00 70 1015.3
20191018011405 47 119 5.0 7.0 0.00 0.00 0.00 70 1015.3
20191018010906 47 122 4.0 7.0 0.00 0.00 0.00 70 1015.4
20191018010406 47 127 4.0 6.0 0.00 0.00 0.00 69 1015.6
20191018005905 47 120 4.0 7.0 0.00 0.00 0.00 69 1015.6
20191018005407 48 112 5.0 6.0 0.00 0.00 0.00 69 1015.6
20191018004905 48 128 3.0 8.0 0.00 0.00 0.00 69 1015.5
20191018004405 48 101 3.0 7.0 0.00 0.00 0.00 69 1015.4
20191018003905 48 126 3.0 7.0 0.00 0.00 0.00 69 1015.7
20191018003405 48 129 5.0 9.0 0.00 0.00 0.00 68 1015.6
20191018002905 48 120 5.0 7.0 0.00 0.00 0.00 68 1015.7
20191018002405 49 135 5.0 9.0 0.00 0.00 0.00 68 1015.7
20191018001905 49 127 4.0 6.0 0.00 0.00 0.00 68 1015.7
20191018001405 49 119 3.0 7.0 0.00 0.00 0.00 68 1015.7
20191018000905 49 128 3.0 7.0 0.00 0.00 0.00 68 1015.6
20191018000404 49 133 3.0 7.0 0.00 0.00 0.00 68 1015.7
20191017235906 49 133 4.0 7.0 0.00 0.00 0.00 68 1015.7
20191017235405 50 126 3.0 7.0 0.00 0.00 0.00 67 1015.7
20191017234905 50 128 4.0 7.0 0.00 0.00 0.00 67 1015.7
20191017234405 50 128 4.0 8.0 0.00 0.00 0.00 66 1015.6
20191017233905 50 132 3.0 8.0 0.00 0.00 0.00 66 1015.6
20191017233405 51 129 5.0 8.0 0.00 0.00 0.00 65 1015.6
20191017232905 51 124 5.0 9.0 0.00 0.00 0.00 64 1015.7
20191017232405 51 123 6.0 10.0 0.00 0.00 0.00 63 1015.6
20191017231905 51 136 7.0 12.0 0.00 0.00 0.00 63 1015.6
20191017231405 52 133 6.0 12.0 0.00 0.00 0.00 62 1015.5
20191017230905 52 125 7.0 12.0 0.00 0.00 0.00 61 1015.6
20191017230405 52 127 6.0 9.0 0.00 0.00 0.00 60 1015.6
20191017225906 52 130 9.0 12.0 0.00 0.00 0.00 60 1015.7
20191017225405 53 131 7.0 12.0 0.00 0.00 0.00 60 1015.8
20191017224905 53 128 9.0 14.0 0.00 0.00 0.00 59 1016.0
20191017224404 53 144 6.0 12.0 0.00 0.00 0.00 59 1016.1
20191017223905 53 135 9.0 13.0 0.00 0.00 0.00 58 1016.0
20191017223405 53 129 7.0 12.0 0.00 0.00 0.00 58 1016.2
20191017222905 53 137 6.0 10.0 0.00 0.00 0.00 58 1016.2
20191017222405 53 146 7.0 12.0 0.00 0.00 0.00 58 1016.3
20191017221905 54 137 7.0 13.0 0.00 0.00 0.00 58 1016.3
20191017221405 54 147 6.0 13.0 0.00 0.00 0.00 58 1016.4
20191017220905 54 157 7.0 14.0 0.00 0.00 0.00 57 1016.4
20191017220405 54 137 6.0 12.0 0.00 0.00 0.00 57 1016.4
20191017215905 54 155 6.0 12.0 0.00 0.00 0.00 57 1016.4
20191017215405 54 134 9.0 16.0 0.00 0.00 0.00 56 1016.4
20191017214905 54 146 9.0 14.0 0.00 0.00 0.00 56 1016.4
20191017214405 54 145 10.0 15.0 0.00 0.00 0.00 55 1016.4
20191017213905 54 137 8.0 12.0 0.00 0.00 0.00 56 1016.4
20191017213405 54 143 9.0 13.0 0.00 0.00 0.00 56 1016.4
20191017212905 54 139 7.0 12.0 0.00 0.00 0.00 57 1016.5
20191017212406 54 163 7.0 13.0 0.00 0.00 0.00 56 1016.5
20191017211904 54 138 7.0 12.0 0.00 0.00 0.00 56 1016.4
20191017211405 54 117 9.0 14.0 0.00 0.00 0.00 56 1016.4
20191017210904 54 127 7.0 12.0 0.00 0.00 0.00 56 1016.6
20191017210405 55 129 10.0 15.0 0.00 0.00 0.00 56 1016.6
20191017205905 54 130 7.0 12.0 0.00 0.00 0.00 56 1016.6
20191017205405 54 132 7.0 12.0 0.00 0.00 0.00 57 1016.7
20191017204905 54 138 10.0 13.0 0.00 0.00 0.00 57 1016.8
20191017204406 54 128 10.0 14.0 0.00 0.00 0.00 57 1017.0
20191017203907 54 147 9.0 13.0 0.00 0.00 0.00 57 1016.9
20191017203407 54 117 7.0 12.0 0.00 0.00 0.00 58 1017.1
20191017202906 54 134 7.0 12.0 0.00 0.00 0.00 58 1017.3
20191017202406 54 151 10.0 14.0 0.00 0.00 0.00 57 1017.3
20191017201907 54 124 5.0 10.0 0.00 0.00 0.00 58 1017.4
20191017201406 53 155 9.0 18.0 0.00 0.00 0.00 57 1017.4
20191017200906 54 122 10.0 17.0 0.00 0.00 0.00 58 1017.5
20191017200407 54 132 9.0 14.0 0.00 0.00 0.00 57 1017.6
20191017195907 54 118 9.0 15.0 0.00 0.00 0.00 58 1017.6
20191017195407 53 137 10.0 16.0 0.00 0.00 0.00 58 1017.7
20191017194906 53 173 10.0 15.0 0.00 0.00 0.00 58 1017.8
20191017194406 53 128 7.0 12.0 0.00 0.00 0.00 59 1017.9
20191017193906 53 122 11.0 14.0 0.00 0.00 0.00 59 1018.0
20191017193406 54 143 5.0 10.0 0.00 0.00 0.00 58 1018.0
20191017192907 53 133 7.0 10.0 0.00 0.00 0.00 58 1018.1
20191017192407 52 164 10.0 13.0 0.00 0.00 0.00 59 1018.2
20191017191906 53 156 5.0 15.0 0.00 0.00 0.00 57 1018.1
20191017191406 53 138 9.0 12.0 0.00 0.00 0.00 60 1018.1
20191017190906 52 120 9.0 15.0 0.00 0.00 0.00 60 1018.4
20191017190406 52 134 7.0 13.0 0.00 0.00 0.00 60 1018.4
20191017185907 53 132 6.0 12.0 0.00 0.00 0.00 60 1018.5
20191017185406 52 141 5.0 10.0 0.00 0.00 0.00 62 1018.5
20191017184906 52 156 8.0 13.0 0.00 0.00 0.00 60 1018.6
20191017184406 51 117 4.0 13.0 0.00 0.00 0.00 62 1018.7
20191017183906 51 144 10.0 15.0 0.00 0.00 0.00 62 1018.7
20191017183406 51 165 5.0 12.0 0.00 0.00 0.00 63 1018.7
20191017182907 52 153 6.0 12.0 0.00 0.00 0.00 61 1018.9
20191017182407 52 146 5.0 14.0 0.00 0.00 0.00 62 1019.0
20191017181906 51 180 3.0 13.0 0.00 0.00 0.00 65 1019.1
20191017181406 51 176 7.0 15.0 0.00 0.00 0.00 64 1019.2
20191017180906 51 147 8.0 14.0 0.00 0.00 0.00 65 1019.2
20191017180407 51 151 5.0 12.0 0.00 0.00 0.00 66 1019.2
20191017175906 50 127 8.0 12.0 0.00 0.00 0.00 66 1019.3
20191017175406 50 177 5.0 12.0 0.00 0.00 0.00 67 1019.2
20191017174906 50 168 5.0 10.0 0.00 0.00 0.00 67 1019.4
20191017174406 50 158 10.0 15.0 0.00 0.00 0.00 67 1019.4
20191017173906 49 133 5.0 12.0 0.00 0.00 0.00 68 1019.6
20191017173406 49 135 8.0 14.0 0.00 0.00 0.00 68 1019.6
20191017172906 49 127 7.0 12.0 0.00 0.00 0.00 67 1019.7
20191017172406 49 131 6.0 12.0 0.00 0.00 0.00 69 1019.8
20191017171906 49 141 9.0 14.0 0.00 0.00 0.00 67 1019.8
20191017171406 49 152 9.0 15.0 0.00 0.00 0.00 68 1019.8
20191017170906 49 191 6.0 10.0 0.00 0.00 0.00 70 1020.0
20191017170406 49 169 7.0 12.0 0.00 0.00 0.00 69 1020.0
20191017165906 49 164 7.0 15.0 0.00 0.00 0.00 71 1020.0
20191017165407 48 126 5.0 10.0 0.00 0.00 0.00 71 1020.0
20191017164906 47 170 9.0 14.0 0.00 0.00 0.00 71 1020.0
20191017164406 47 138 7.0 12.0 0.00 0.00 0.00 74 1020.0
20191017163906 47 119 10.0 14.0 0.00 0.00 0.00 74 1020.1
20191017163406 46 146 7.0 13.0 0.00 0.00 0.00 75 1020.1
20191017162906 46 148 9.0 14.0 0.00 0.00 0.00 74 1020.2
20191017162406 46 140 8.0 12.0 0.00 0.00 0.00 75 1020.2
20191017161906 46 198 5.0 10.0 0.00 0.00 0.00 76 1020.2
20191017161406 46 180 7.0 12.0 0.00 0.00 0.00 77 1020.2
20191017160906 45 156 10.0 12.0 0.00 0.00 0.00 77 1020.2
20191017160406 45 148 7.0 13.0 0.00 0.00 0.00 78 1020.3
20191017155906 45 129 5.0 12.0 0.00 0.00 0.00 81 1020.3
20191017155406 44 134 7.0 12.0 0.00 0.00 0.00 80 1020.4
20191017154906 44 153 7.0 12.0 0.00 0.00 0.00 81 1020.4
20191017154406 44 154 7.0 13.0 0.00 0.00 0.00 81 1020.4
20191017153906 43 141 4.0 10.0 0.00 0.00 0.00 83 1020.5
20191017153407 44 121 6.0 12.0 0.00 0.00 0.00 83 1020.5
20191017152906 43 163 7.0 12.0 0.00 0.00 0.00 84 1020.5
20191017152406 43 129 4.0 9.0 0.00 0.00 0.00 86 1020.5
20191017151906 42 124 5.0 9.0 0.00 0.00 0.00 86 1020.4
20191017151406 42 126 6.0 9.0 0.00 0.00 0.00 86 1020.4
20191017150906 41 129 4.0 7.0 0.00 0.00 0.00 89 1020.3
20191017150405 41 119 5.0 8.0 0.00 0.00 0.00 89 1020.3
20191017145906 41 173 3.0 7.0 0.00 0.00 0.00 91 1020.4
20191017145406 40 177 4.0 8.0 0.00 0.00 0.00 91 1020.4
20191017144906 40 144 2.0 7.0 0.00 0.00 0.00 93 1020.3
20191017144406 39 127 2.0 5.0 0.00 0.00 0.00 93 1020.3
20191017143906 39 172 1.0 5.0 0.00 0.00 0.00 95 1020.4
20191017143406 38 171 3.0 6.0 0.00 0.00 0.00 95 1020.4
20191017142906 38 151 2.0 3.0 0.00 0.00 0.00 95 1020.6
20191017142406 37 148 2.0 3.0 0.00 0.00 0.00 96 1020.6
20191017141906 36 147 2.0 3.0 0.00 0.00 0.00 96 1020.5
20191017141406 36 126 2.0 3.0 0.00 0.00 0.00 97 1020.5
20191017140906 35 244 2.0 3.0 0.00 0.00 0.00 96 1020.5
20191017140407 35 313 2.0 3.0 0.00 0.01 0.00 97 1020.4
20191017135906 35 305 0.0 0.0 0.00 0.01 0.00 97 1020.4
20191017135406 34 305 0.0 0.0 0.00 0.01 0.00 97 1020.4
20191017134906 34 305 0.0 0.0 0.00 0.01 0.00 97 1020.4
20191017134406 33 305 0.0 0.0 0.00 0.01 0.00 96 1020.5
20191017133906 34 305 0.0 0.0 0.00 0.01 0.00 96 1020.4
20191017133406 33 305 0.0 0.0 0.00 0.01 0.00 96 1020.4
20191017132906 33 305 0.0 0.0 0.00 0.01 0.00 96 1020.5
20191017132406 33 305 0.0 0.0 0.00 0.01 0.00 96 1020.5
20191017131906 33 305 0.0 0.0 0.00 0.01 0.00 96 1020.4
20191017131406 33 305 0.0 0.0 0.00 0.01 0.00 95 1020.3
20191017130906 34 305 0.0 0.0 0.00 0.01 0.00 95 1020.4
20191017130406 34 305 0.0 0.0 0.00 0.01 0.00 95 1020.4
20191017125906 34 305 0.0 0.0 0.00 0.01 0.00 96 1020.4
20191017125406 34 305 0.0 0.0 0.00 0.01 0.00 97 1020.4
20191017124906 33 305 0.0 0.0 0.00 0.01 0.00 97 1020.4
20191017124405 33 305 0.0 0.0 0.00 0.01 0.00 97 1020.3
20191017123906 32 305 0.0 0.0 0.00 0.01 0.00 97 1020.4
20191017123405 32 305 0.0 0.0 0.00 0.01 0.00 96 1020.4
20191017122906 32 305 0.0 0.0 0.00 0.01 0.00 96 1020.3
20191017122406 33 305 0.0 0.0 0.00 0.01 0.00 96 1020.3
20191017121906 33 305 0.0 0.0 0.00 0.01 0.00 97 1020.3
20191017121406 33 305 0.0 0.0 0.00 0.01 0.00 97 1020.3
20191017120906 33 305 0.0 0.0 0.00 0.01 0.00 97 1020.3
20191017120406 32 305 0.0 0.0 0.00 0.01 0.00 96 1020.2
20191017115906 33 305 0.0 0.0 0.00 0.01 0.00 97 1020.2
20191017115406 32 305 0.0 0.0 0.00 0.01 0.00 97 1020.1
20191017114906 32 305 0.0 0.0 0.00 0.01 0.00 97 1020.0
20191017114406 33 305 0.0 0.0 0.00 0.01 0.00 97 1020.0
20191017113906 33 305 0.0 0.0 0.00 0.01 0.00 97 1020.0
20191017113406 32 305 0.0 0.0 0.00 0.01 0.00 97 1020.0
20191017112906 32 305 0.0 0.0 0.00 0.01 0.00 97 1020.0
20191017112406 32 305 0.0 0.0 0.00 0.01 0.00 96 1020.0
20191017111906 32 279 0.0 0.0 0.00 0.01 0.00 96 1020.0
20191017111406 32 239 0.0 0.0 0.00 0.01 0.00 96 1020.0
20191017110906 32 223 0.0 0.0 0.00 0.01 0.00 96 1020.0
20191017110405 32 223 0.0 0.0 0.00 0.01 0.00 96 1019.9
20191017051906 40 223 0.0 0.0 0.00 0.01 0.00 92 1020.9
20191017051405 40 223 0.0 0.0 0.00 0.01 0.00 91 1020.9
20191017050905 40 223 0.0 0.0 0.00 0.01 0.00 91 1021.0
20191017050406 40 223 0.0 0.0 0.00 0.01 0.00 91 1021.0
20191017045905 40 223 0.0 0.0 0.00 0.01 0.01 90 1021.0
20191017045405 41 223 0.0 0.0 0.00 0.01 0.01 90 1021.0
20191017044906 41 223 0.0 0.0 0.00 0.01 0.01 90 1021.0
20191017044405 41 223 0.0 0.0 0.00 0.01 0.01 90 1021.0
20191017043905 41 223 0.0 0.0 0.00 0.01 0.01 90 1021.0
20191017043405 41 223 0.0 0.0 0.00 0.01 0.01 90 1021.1
20191017042906 41 223 0.0 0.0 0.00 0.01 0.01 90 1021.1
20191017042405 41 223 0.0 0.0 0.00 0.01 0.01 90 1021.1
20191017041905 41 223 0.0 0.0 0.00 0.01 0.01 90 1021.1
20191017041405 41 223 0.0 2.0 0.00 0.01 0.01 90 1021.1
20191017040905 41 223 1.0 2.0 0.00 0.01 0.01 90 1021.1
20191017040405 41 223 1.0 2.0 0.00 0.01 0.01 89 1021.1
20191017035905 41 223 1.0 2.0 0.00 0.01 0.01 89 1021.1
20191017035405 41 300 0.0 0.0 0.00 0.01 0.01 88 1021.1
20191017034905 41 300 0.0 0.0 0.00 0.01 0.01 89 1021.2
20191017034406 41 300 0.0 0.0 0.00 0.01 0.01 88 1021.3
20191017033905 41 300 0.0 1.0 0.00 0.01 0.01 88 1021.2
20191017033406 41 300 1.0 2.0 0.00 0.01 0.01 88 1021.2
20191017032905 41 300 1.0 2.0 0.00 0.01 0.01 88 1021.2
20191017032406 41 300 0.0 2.0 0.00 0.01 0.01 87 1021.2
20191017031905 41 300 1.0 2.0 0.00 0.01 0.01 87 1021.3
20191017031405 41 300 0.0 2.0 0.00 0.01 0.01 87 1021.3
20191017030906 41 300 0.0 1.0 0.00 0.01 0.01 87 1021.3
20191017030406 41 300 0.0 1.0 0.00 0.01 0.01 87 1021.3
20191017025905 41 300 1.0 2.0 0.00 0.01 0.01 87 1021.3
20191017025406 41 300 1.0 2.0 0.00 0.01 0.01 87 1021.3
20191017024905 41 300 0.0 0.0 0.00 0.01 0.01 87 1021.3
20191017024405 41 300 0.0 0.0 0.00 0.01 0.01 87 1021.2
20191017023906 41 300 0.0 0.0 0.00 0.01 0.01 87 1021.2
20191017023405 41 300 0.0 0.0 0.00 0.01 0.01 87 1021.1